createdAt,value
2022-10-13T00:00:43.281Z,8.21
2022-10-13T00:01:43.079Z,8.29
2022-10-13T00:02:43.337Z,8.24
2022-10-13T00:03:43.337Z,8.25
2022-10-13T00:04:43.036Z,8.29
2022-10-13T00:05:43.068Z,8.34
2022-10-13T00:06:43.268Z,8.36
2022-10-13T00:07:43.008Z,8.26
2022-10-13T00:08:43.242Z,8.25
2022-10-13T00:09:42.969Z,8.21
2022-10-13T00:10:43.219Z,8.34
2022-10-13T00:11:42.953Z,8.26
2022-10-13T00:12:42.935Z,8.24
2022-10-13T00:13:42.664Z,8.24
2022-10-13T00:14:42.900Z,8.26
2022-10-13T00:15:42.943Z,8.25
2022-10-13T00:16:42.902Z,8.28
2022-10-13T00:17:43.113Z,8.35
2022-10-13T00:18:43.108Z,8.34
2022-10-13T00:19:42.837Z,8.31
2022-10-13T00:20:42.562Z,8.39
2022-10-13T00:21:43.076Z,8.34
2022-10-13T00:22:43.051Z,8.32
2022-10-13T00:23:42.782Z,8.39
2022-10-13T00:24:42.505Z,8.34
2022-10-13T00:25:42.490Z,8.39
2022-10-13T00:26:43.004Z,8.34
2022-10-13T00:27:42.721Z,8.39
2022-10-13T00:28:42.950Z,8.35
2022-10-13T00:29:42.442Z,8.31
2022-10-13T00:30:42.687Z,8.26
2022-10-13T00:31:43.006Z,8.19
2022-10-13T00:32:42.679Z,8.24
2022-10-13T00:33:42.638Z,8.35
2022-10-13T00:34:42.630Z,8.19
2022-10-13T00:35:42.607Z,8.22
2022-10-13T00:36:42.603Z,8.29
2022-10-13T00:37:42.841Z,8.22
2022-10-13T00:38:42.574Z,8.17
2022-10-13T00:39:42.560Z,8.25
2022-10-13T00:40:42.284Z,8.19
2022-10-13T00:41:42.785Z,8.14
2022-10-13T00:42:42.516Z,8.21
2022-10-13T00:43:42.249Z,8.07
2022-10-13T00:44:42.490Z,8.1
2022-10-13T00:45:42.739Z,8.09
2022-10-13T00:46:42.479Z,8.01
2022-10-13T00:47:42.493Z,7.98
2022-10-13T00:48:42.720Z,8.01
2022-10-13T00:49:42.424Z,7.98
2022-10-13T00:50:42.415Z,7.96
2022-10-13T00:51:42.408Z,8.03
2022-10-13T00:52:42.633Z,8.03
2022-10-13T00:53:42.624Z,8.03
2022-10-13T00:54:42.367Z,8.06
2022-10-13T00:55:42.079Z,7.99
2022-10-13T00:56:42.576Z,7.89
2022-10-13T00:57:42.559Z,7.92
2022-10-13T00:58:42.559Z,7.99
2022-10-13T00:59:42.283Z,7.96
2022-10-13T01:00:42.638Z,7.93
2022-10-13T01:01:41.998Z,7.85
2022-10-13T01:02:42.498Z,7.85
2022-10-13T01:03:42.531Z,7.89
2022-10-13T01:04:42.486Z,7.89
2022-10-13T01:05:42.196Z,7.91
2022-10-13T01:06:42.443Z,7.92
2022-10-13T01:07:42.173Z,7.91
2022-10-13T01:08:42.155Z,8.04
2022-10-13T01:09:42.429Z,8.14
2022-10-13T01:10:41.876Z,8.1
2022-10-13T01:11:42.378Z,8.28
2022-10-13T01:12:42.356Z,8.36
2022-10-13T01:13:42.349Z,8.46
2022-10-13T01:14:42.075Z,8.53
2022-10-13T01:15:42.327Z,8.64
2022-10-13T01:16:42.474Z,8.79
2022-10-13T01:17:42.028Z,8.76
2022-10-13T01:18:41.773Z,8.79
2022-10-13T01:19:42.310Z,8.8
2022-10-13T01:20:42.015Z,8.83
2022-10-13T01:21:41.718Z,8.82
2022-10-13T01:22:41.982Z,8.9
2022-10-13T01:23:42.205Z,8.95
2022-10-13T01:24:41.939Z,8.94
2022-10-13T01:25:41.927Z,8.95
2022-10-13T01:26:42.160Z,8.87
2022-10-13T01:27:42.155Z,8.83
2022-10-13T01:28:41.839Z,8.79
2022-10-13T01:29:41.872Z,8.67
2022-10-13T01:30:41.851Z,8.71
2022-10-13T01:31:41.841Z,8.64
2022-10-13T01:32:41.828Z,8.62
2022-10-13T01:34:41.796Z,8.5
2022-10-13T01:35:41.839Z,8.43
2022-10-13T01:36:41.790Z,8.36
2022-10-13T01:37:42.012Z,8.28
2022-10-13T01:38:41.743Z,8.22
2022-10-13T01:39:41.734Z,8.19
2022-10-13T01:40:41.717Z,8.19
2022-10-13T01:41:41.703Z,8.28
2022-10-13T01:42:41.695Z,8.09
2022-10-13T01:43:41.942Z,8.24
2022-10-13T01:44:41.664Z,8.14
2022-10-13T01:45:41.649Z,8.14
2022-10-13T01:46:41.892Z,8.11
2022-10-13T01:47:41.884Z,8.13
2022-10-13T01:48:41.614Z,8.1
2022-10-13T01:49:41.859Z,8.14
2022-10-13T01:50:41.581Z,8.06
2022-10-13T01:51:41.882Z,8.1
2022-10-13T01:52:41.609Z,8.07
2022-10-13T01:53:41.295Z,8.16
2022-10-13T01:54:41.322Z,8.24
2022-10-13T01:55:41.515Z,8.14
2022-10-13T01:56:41.756Z,8.24
2022-10-13T01:57:41.742Z,8.25
2022-10-13T01:58:41.471Z,8.36
2022-10-13T01:59:41.715Z,8.42
2022-10-13T02:00:41.904Z,8.4
2022-10-13T02:01:41.429Z,8.47
2022-10-13T02:02:41.413Z,8.53
2022-10-13T02:03:41.671Z,8.64
2022-10-13T02:04:41.145Z,8.64
2022-10-13T02:05:41.374Z,8.65
2022-10-13T02:06:41.362Z,8.6
2022-10-13T02:07:41.396Z,8.62
2022-10-13T02:08:41.620Z,8.69
2022-10-13T02:09:41.329Z,8.68
2022-10-13T02:10:41.567Z,8.65
2022-10-13T02:11:41.039Z,8.69
2022-10-13T02:12:41.030Z,8.6
2022-10-13T02:13:41.272Z,8.67
2022-10-13T02:14:41.260Z,8.52
2022-10-13T02:15:41.246Z,8.57
2022-10-13T02:16:41.259Z,8.57
2022-10-13T02:17:41.218Z,8.57
2022-10-13T02:18:41.200Z,8.57
2022-10-13T02:19:41.440Z,8.5
2022-10-13T02:20:41.429Z,8.58
2022-10-13T02:21:41.158Z,8.6
2022-10-13T02:22:41.150Z,8.6
2022-10-13T02:23:41.434Z,8.6
2022-10-13T02:24:41.171Z,8.69
2022-10-13T02:25:41.111Z,8.62
2022-10-13T02:26:41.345Z,8.61
2022-10-13T02:27:41.337Z,8.6
2022-10-13T02:28:41.639Z,8.62
2022-10-13T02:29:41.302Z,8.6
2022-10-13T02:30:40.785Z,8.53
2022-10-13T02:31:41.284Z,8.67
2022-10-13T02:32:40.757Z,8.76
2022-10-13T02:33:41.265Z,8.76
2022-10-13T02:34:41.236Z,8.8
2022-10-13T02:35:41.226Z,8.82
2022-10-13T02:36:41.218Z,9.03
2022-10-13T02:37:40.944Z,9.05
2022-10-13T02:38:40.676Z,9.03
2022-10-13T02:39:40.960Z,9.03
2022-10-13T02:40:41.183Z,9.04
2022-10-13T02:41:40.893Z,9.01
2022-10-13T02:42:40.878Z,9.14
2022-10-13T02:43:41.115Z,9.17
2022-10-13T02:44:40.599Z,9.14
2022-10-13T02:45:40.839Z,9.19
2022-10-13T02:46:41.081Z,9.17
2022-10-13T02:47:40.806Z,9.2
2022-10-13T02:48:41.060Z,9.37
2022-10-13T02:49:40.786Z,9.32
2022-10-13T02:50:40.768Z,9.34
2022-10-13T02:51:45.029Z,9.35
2022-10-13T02:52:41.000Z,9.32
2022-10-13T02:53:40.734Z,9.29
2022-10-13T02:54:40.465Z,9.34
2022-10-13T02:55:41.004Z,9.3
2022-10-13T02:56:40.976Z,9.35
2022-10-13T02:57:40.680Z,9.29
2022-10-13T02:58:40.666Z,9.29
2022-10-13T02:59:40.660Z,9.3
2022-10-13T03:00:40.749Z,9.27
2022-10-13T03:01:40.636Z,9.2
2022-10-13T03:02:40.871Z,9.23
2022-10-13T03:03:40.849Z,9.32
2022-10-13T03:04:40.587Z,9.34
2022-10-13T03:05:40.827Z,9.38
2022-10-13T03:06:40.819Z,9.38
2022-10-13T03:07:40.303Z,9.29
2022-10-13T03:08:40.529Z,9.41
2022-10-13T03:09:40.525Z,9.47
2022-10-13T03:10:40.519Z,9.45
2022-10-13T03:11:40.546Z,9.48
2022-10-13T03:12:40.869Z,9.47
2022-10-13T03:13:40.474Z,9.52
2022-10-13T03:14:40.207Z,9.56
2022-10-13T03:15:40.188Z,9.57
2022-10-13T03:16:40.684Z,9.59
2022-10-13T03:17:40.421Z,9.63
2022-10-13T03:18:40.417Z,9.5
2022-10-13T03:19:40.402Z,9.48
2022-10-13T03:20:40.640Z,9.45
2022-10-13T03:21:40.628Z,9.55
2022-10-13T03:22:40.093Z,9.48
2022-10-13T03:23:40.083Z,9.52
2022-10-13T03:24:40.326Z,9.52
2022-10-13T03:25:40.060Z,9.5
2022-10-13T03:26:40.305Z,9.42
2022-10-13T03:27:40.336Z,9.3
2022-10-13T03:28:40.534Z,9.32
2022-10-13T03:29:40.289Z,9.27
2022-10-13T03:30:40.254Z,9.17
2022-10-13T03:31:40.237Z,9.14
2022-10-13T03:49:25.090Z,8.46
2022-10-13T03:50:24.996Z,8.39
2022-10-13T03:51:24.972Z,8.32
2022-10-13T03:52:25.525Z,8.22
2022-10-13T03:53:24.429Z,8.26
2022-10-13T03:54:24.676Z,8.24
2022-10-13T03:55:24.655Z,8.19
2022-10-13T03:56:24.894Z,8.21
2022-10-13T03:57:24.643Z,8.16
2022-10-13T03:58:24.874Z,8.21
2022-10-13T03:59:24.846Z,8.16
2022-10-13T04:00:24.590Z,8.19
2022-10-13T04:01:25.074Z,8.25
2022-10-13T04:02:25.414Z,8.1
2022-10-13T04:03:24.274Z,8.14
2022-10-13T04:04:24.777Z,8.13
2022-10-13T04:05:24.859Z,8.22
2022-10-13T04:06:24.494Z,8.25
2022-10-13T04:07:24.473Z,8.28
2022-10-13T04:08:24.463Z,8.32
2022-10-13T04:09:24.452Z,8.32
2022-10-13T04:10:24.441Z,8.28
2022-10-13T04:11:24.673Z,8.43
2022-10-13T04:12:26.687Z,8.49
2022-10-13T04:13:24.137Z,8.58
2022-10-13T04:14:24.123Z,8.61
2022-10-13T04:15:24.110Z,8.72
2022-10-13T04:16:24.358Z,8.74
2022-10-13T04:17:24.344Z,8.86
2022-10-13T04:18:24.322Z,8.85
2022-10-13T04:19:24.307Z,9.01
2022-10-13T04:20:24.045Z,9.03
2022-10-13T04:21:24.689Z,9.01
2022-10-13T04:22:25.591Z,9
2022-10-13T04:23:25.055Z,9.03
2022-10-13T04:24:24.796Z,9
2022-10-13T04:25:25.037Z,8.97
2022-10-13T04:26:24.767Z,8.82
2022-10-13T04:27:24.752Z,8.85
2022-10-13T04:28:24.946Z,8.74
2022-10-13T04:29:24.982Z,8.72
2022-10-13T04:30:24.714Z,8.76
2022-10-13T04:31:24.691Z,8.68
2022-10-13T04:32:25.447Z,8.68
2022-10-13T04:33:24.930Z,8.64
2022-10-13T04:34:24.675Z,8.74
2022-10-13T04:35:24.388Z,8.71
2022-10-13T04:36:24.885Z,8.69
2022-10-13T04:37:25.135Z,8.69
2022-10-13T04:38:24.347Z,8.76
2022-10-13T04:39:24.843Z,8.72
2022-10-13T04:40:24.826Z,8.69
2022-10-13T04:41:24.308Z,8.77
2022-10-13T04:42:25.486Z,8.74
2022-10-13T04:43:24.277Z,8.64
2022-10-13T04:44:24.523Z,8.62
2022-10-13T04:45:24.782Z,8.67
2022-10-13T04:46:24.767Z,8.65
2022-10-13T04:47:24.481Z,8.67
2022-10-13T04:48:24.466Z,8.62
2022-10-13T04:49:24.703Z,8.54
2022-10-13T04:50:24.700Z,8.6
2022-10-13T04:51:24.696Z,8.64
2022-10-13T04:52:25.305Z,8.6
2022-10-13T04:53:24.728Z,8.58
2022-10-13T04:54:24.643Z,8.54
2022-10-13T04:55:24.379Z,8.54
2022-10-13T04:56:24.618Z,8.49
2022-10-13T04:57:24.605Z,8.58
2022-10-13T04:58:24.335Z,8.58
2022-10-13T04:59:24.328Z,8.6
2022-10-13T05:00:24.506Z,8.65
2022-10-13T05:01:26.726Z,8.77
2022-10-13T05:02:25.176Z,8.71
2022-10-13T05:03:24.271Z,8.92
2022-10-13T05:04:24.249Z,8.95
2022-10-13T05:05:24.493Z,9.05
2022-10-13T05:06:24.484Z,9.03
2022-10-13T05:07:24.465Z,9.04
2022-10-13T05:08:24.455Z,9.19
2022-10-13T05:09:24.534Z,9.29
2022-10-13T05:10:24.181Z,9.34
2022-10-13T05:11:24.157Z,9.35
2022-10-13T05:12:25.384Z,9.52
2022-10-13T05:13:24.387Z,9.45
2022-10-13T05:14:24.378Z,9.5
2022-10-13T05:15:24.110Z,9.6
2022-10-13T05:16:24.348Z,9.57
2022-10-13T05:17:24.339Z,9.52
2022-10-13T05:18:24.072Z,9.57
2022-10-13T05:19:24.322Z,9.66
2022-10-13T05:20:24.037Z,9.66
2022-10-13T05:21:24.023Z,9.67
2022-10-13T05:22:24.985Z,9.75
2022-10-13T05:23:24.005Z,9.75
2022-10-13T05:24:23.987Z,9.75
2022-10-13T05:25:24.355Z,9.75
2022-10-13T05:26:23.703Z,9.74
2022-10-13T05:27:23.698Z,9.75
2022-10-13T05:28:24.448Z,9.82
2022-10-13T05:29:24.177Z,9.8
2022-10-13T05:30:24.174Z,9.78
2022-10-13T05:31:24.165Z,9.89
2022-10-13T05:32:24.514Z,9.81
2022-10-13T05:33:24.126Z,9.78
2022-10-13T05:34:23.875Z,9.82
2022-10-13T05:35:23.597Z,9.8
2022-10-13T05:36:23.843Z,9.81
2022-10-13T05:37:23.826Z,9.84
2022-10-13T05:38:30.318Z,9.81
2022-10-13T05:39:23.802Z,9.75
2022-10-13T05:40:23.788Z,9.82
2022-10-13T05:41:24.125Z,9.84
2022-10-13T05:42:24.540Z,9.93
2022-10-13T05:43:23.770Z,9.85
2022-10-13T05:44:24.016Z,9.99
2022-10-13T05:45:23.737Z,9.93
2022-10-13T05:46:23.722Z,10.07
2022-10-13T05:47:23.971Z,10.03
2022-10-13T05:48:23.964Z,10
2022-10-13T05:49:23.683Z,10.1
2022-10-13T05:50:23.947Z,10.1
2022-10-13T05:51:23.665Z,10.2
2022-10-13T05:52:24.397Z,10.15
2022-10-13T05:53:23.389Z,10.18
2022-10-13T05:54:23.895Z,10.25
2022-10-13T05:55:23.871Z,10.29
2022-10-13T05:56:23.860Z,10.26
2022-10-13T05:57:24.097Z,10.31
2022-10-13T05:58:23.577Z,10.35
2022-10-13T05:59:29.801Z,10.38
2022-10-13T06:00:23.292Z,10.39
2022-10-13T06:01:23.589Z,10.41
2022-10-13T06:02:24.569Z,10.46
2022-10-13T06:03:23.528Z,10.44
2022-10-13T06:04:23.507Z,10.49
2022-10-13T06:05:23.742Z,10.42
2022-10-13T06:06:25.802Z,10.46
2022-10-13T06:07:23.214Z,10.44
2022-10-13T06:08:23.454Z,10.47
2022-10-13T06:09:23.181Z,10.46
2022-10-13T06:10:23.679Z,10.44
2022-10-13T06:11:23.414Z,10.44
2022-10-13T06:12:24.469Z,10.44
2022-10-13T06:13:23.722Z,10.41
2022-10-13T06:14:23.380Z,10.41
2022-10-13T06:15:29.238Z,10.31
2022-10-13T06:16:23.631Z,10.39
2022-10-13T06:17:23.360Z,10.25
2022-10-13T06:18:23.591Z,10.25
2022-10-13T06:19:23.574Z,10.23
2022-10-13T06:20:23.054Z,10.26
2022-10-13T06:21:23.547Z,10.26
2022-10-13T06:22:24.575Z,10.25
2022-10-13T06:23:23.264Z,10.2
2022-10-13T06:24:23.259Z,10.31
2022-10-13T06:25:23.509Z,10.29
2022-10-13T06:26:23.230Z,10.35
2022-10-13T06:27:23.221Z,10.33
2022-10-13T06:28:23.135Z,10.35
2022-10-13T06:29:23.548Z,10.36
2022-10-13T06:30:23.195Z,10.44
2022-10-13T06:31:23.427Z,10.46
2022-10-13T06:32:24.654Z,10.44
2022-10-13T06:33:22.916Z,10.49
2022-10-13T06:34:22.893Z,10.61
2022-10-13T06:35:23.129Z,10.59
2022-10-13T06:36:23.108Z,10.57
2022-10-13T06:37:29.720Z,10.65
2022-10-13T06:38:23.095Z,10.69
2022-10-13T06:39:23.326Z,10.69
2022-10-13T06:40:23.065Z,10.69
2022-10-13T06:41:23.061Z,10.67
2022-10-13T06:42:24.364Z,10.67
2022-10-13T06:43:26.026Z,10.88
2022-10-13T06:44:22.753Z,10.83
2022-10-13T06:45:23.398Z,10.91
2022-10-13T06:46:23.254Z,10.91
2022-10-13T06:47:22.977Z,10.88
2022-10-13T06:48:22.970Z,10.94
2022-10-13T06:49:22.709Z,10.97
2022-10-13T06:50:22.990Z,11.08
2022-10-13T06:51:23.189Z,11.05
2022-10-13T06:52:24.091Z,11.12
2022-10-13T06:53:22.915Z,11.15
2022-10-13T06:54:22.641Z,11.16
2022-10-13T06:55:23.139Z,11.21
2022-10-13T06:56:22.622Z,11.28
2022-10-13T06:57:22.610Z,11.24
2022-10-13T06:58:22.863Z,11.34
2022-10-13T06:59:23.100Z,11.33
2022-10-13T07:00:22.918Z,11.39
2022-10-13T07:01:23.146Z,11.41
2022-10-13T07:02:24.272Z,11.45
2022-10-13T07:03:22.795Z,11.51
2022-10-13T07:04:22.527Z,11.59
2022-10-13T07:05:22.775Z,11.57
2022-10-13T07:06:22.768Z,11.78
2022-10-13T07:07:22.500Z,11.94
2022-10-13T07:08:22.737Z,12.1
2022-10-13T07:09:22.481Z,12.31
2022-10-13T07:10:22.811Z,12.4
2022-10-13T07:11:22.710Z,12.62
2022-10-13T07:12:24.221Z,12.73
2022-10-13T07:13:23.780Z,12.88
2022-10-13T07:14:22.927Z,12.99
2022-10-13T07:15:22.659Z,13.07
2022-10-13T07:16:22.917Z,13.02
2022-10-13T07:17:24.352Z,13.27
2022-10-13T07:18:22.882Z,13.28
2022-10-13T07:19:22.367Z,13.39
2022-10-13T07:20:22.937Z,13.32
2022-10-13T07:21:22.875Z,13.37
2022-10-13T07:22:22.586Z,13.36
2022-10-13T07:23:22.832Z,13.28
2022-10-13T07:24:22.313Z,13.25
2022-10-13T07:25:22.815Z,13.21
2022-10-13T07:26:22.551Z,13.13
2022-10-13T07:27:23.723Z,13.02
2022-10-13T07:28:22.651Z,13.07
2022-10-13T07:29:22.796Z,12.99
2022-10-13T07:30:22.502Z,13.13
2022-10-13T07:31:22.758Z,13.1
2022-10-13T07:32:22.753Z,13.1
2022-10-13T07:33:22.891Z,13.27
2022-10-13T07:34:22.492Z,13.35
2022-10-13T07:35:24.823Z,13.35
2022-10-13T07:36:22.460Z,13.39
2022-10-13T07:37:23.507Z,13.4
2022-10-13T07:38:22.694Z,13.5
2022-10-13T07:39:22.415Z,13.5
2022-10-13T07:40:22.672Z,13.5
2022-10-13T07:41:22.728Z,13.5
2022-10-13T07:42:22.642Z,13.4
2022-10-13T07:43:22.634Z,13.48
2022-10-13T07:44:22.626Z,13.4
2022-10-13T07:45:22.357Z,13.53
2022-10-13T07:46:22.605Z,13.48
2022-10-13T07:47:23.480Z,13.47
2022-10-13T07:49:22.719Z,13.47
2022-10-13T07:50:22.862Z,13.51
2022-10-13T07:51:22.303Z,13.55
2022-10-13T07:52:23.506Z,13.6
2022-10-13T07:53:22.287Z,13.53
2022-10-13T07:54:27.645Z,13.48
2022-10-13T07:55:22.515Z,13.5
2022-10-13T07:56:22.509Z,13.44
2022-10-13T07:57:22.243Z,13.45
2022-10-13T07:58:22.238Z,13.42
2022-10-13T07:59:22.479Z,13.54
2022-10-13T08:00:22.596Z,13.5
2022-10-13T08:01:22.447Z,13.48
2022-10-13T08:02:23.196Z,13.5
2022-10-13T08:03:22.450Z,13.51
2022-10-13T08:04:22.189Z,13.58
2022-10-13T08:05:22.610Z,13.45
2022-10-13T08:06:22.166Z,13.54
2022-10-13T08:07:23.516Z,13.58
2022-10-13T08:08:22.142Z,13.69
2022-10-13T08:09:22.139Z,13.73
2022-10-13T08:10:22.491Z,13.72
2022-10-13T08:11:22.516Z,13.87
2022-10-13T08:12:23.060Z,13.88
2022-10-13T08:13:21.846Z,13.9
2022-10-13T08:14:22.088Z,13.94
2022-10-13T08:15:22.338Z,13.84
2022-10-13T08:16:22.332Z,13.94
2022-10-13T08:17:23.421Z,13.86
2022-10-13T08:18:22.048Z,13.87
2022-10-13T08:19:22.064Z,13.87
2022-10-13T08:20:22.031Z,13.9
2022-10-13T08:22:01.408Z,13.99
2022-10-13T08:22:25.962Z,14.01
2022-10-13T08:23:21.754Z,14.09
2022-10-13T08:24:22.278Z,14.2
2022-10-13T08:25:21.998Z,14.16
2022-10-13T08:26:22.000Z,14.27
2022-10-13T08:27:22.859Z,14.27
2022-10-13T08:28:22.552Z,14.3
2022-10-13T08:29:27.227Z,14.28
2022-10-13T08:30:22.623Z,14.28
2022-10-13T08:31:23.004Z,14.39
2022-10-13T08:32:22.917Z,14.3
2022-10-13T08:33:21.658Z,14.36
2022-10-13T08:34:22.173Z,14.36
2022-10-13T08:35:21.646Z,14.49
2022-10-13T08:36:21.889Z,14.49
2022-10-13T08:37:22.259Z,14.51
2022-10-13T08:38:21.872Z,14.66
2022-10-13T08:39:21.863Z,14.63
2022-10-13T08:40:21.669Z,14.71
2022-10-13T08:41:22.106Z,14.87
2022-10-13T08:42:23.226Z,14.86
2022-10-13T08:43:22.084Z,14.97
2022-10-13T08:45:41.601Z,15.04
2022-10-13T08:45:51.827Z,15.18
2022-10-13T08:46:51.542Z,15.16
2022-10-13T08:47:51.796Z,15.19
2022-10-13T08:48:51.528Z,15.25
2022-10-13T08:49:53.499Z,15.25
2022-10-13T08:50:51.512Z,15.18
2022-10-13T08:51:51.758Z,15.18
2022-10-13T08:52:51.890Z,15.23
2022-10-13T08:53:51.749Z,15.31
2022-10-13T08:54:51.233Z,15.34
2022-10-13T08:55:51.780Z,15.34
2022-10-13T08:56:51.882Z,15.37
2022-10-13T08:57:51.452Z,15.47
2022-10-13T08:58:51.470Z,15.51
2022-10-13T08:59:51.189Z,15.58
2022-10-13T09:00:51.692Z,15.58
2022-10-13T09:01:51.664Z,15.56
2022-10-13T09:02:51.181Z,15.52
2022-10-13T09:03:51.672Z,15.51
2022-10-13T09:04:51.417Z,15.47
2022-10-13T09:05:51.394Z,15.34
2022-10-13T09:06:51.389Z,15.4
2022-10-13T09:07:51.278Z,15.3
2022-10-13T09:08:51.799Z,15.4
2022-10-13T09:09:51.370Z,15.4
2022-10-13T09:10:51.607Z,15.4
2022-10-13T09:11:51.606Z,15.33
2022-10-13T09:12:51.337Z,15.35
2022-10-13T09:13:51.596Z,15.43
2022-10-13T09:14:51.582Z,15.45
2022-10-13T09:15:51.329Z,15.62
2022-10-13T09:16:51.316Z,15.77
2022-10-13T09:17:51.301Z,15.73
2022-10-13T09:18:51.289Z,15.81
2022-10-13T09:19:51.292Z,15.93
2022-10-13T09:20:51.020Z,16.1
2022-10-13T09:21:51.296Z,16.14
2022-10-13T09:22:51.266Z,16.14
2022-10-13T09:23:51.258Z,16.36
2022-10-13T09:24:51.580Z,16.27
2022-10-13T09:25:51.247Z,16.29
2022-10-13T09:26:51.490Z,16.29
2022-10-13T09:27:51.224Z,16.3
2022-10-13T09:28:51.740Z,16.3
2022-10-13T09:29:51.206Z,16.42
2022-10-13T09:30:51.468Z,16.4
2022-10-13T09:31:51.452Z,16.45
2022-10-13T09:32:51.189Z,16.52
2022-10-13T09:33:51.189Z,16.52
2022-10-13T09:34:51.446Z,16.52
2022-10-13T09:35:51.428Z,16.54
2022-10-13T09:36:50.907Z,16.49
2022-10-13T09:37:51.407Z,16.51
2022-10-13T09:38:51.152Z,16.44
2022-10-13T09:39:51.155Z,16.42
2022-10-13T09:40:51.473Z,16.42
2022-10-13T09:41:51.124Z,16.45
2022-10-13T09:42:51.371Z,16.49
2022-10-13T09:43:51.387Z,16.48
2022-10-13T09:44:51.396Z,16.51
2022-10-13T09:45:51.362Z,16.55
2022-10-13T09:46:51.363Z,16.48
2022-10-13T09:47:51.098Z,16.44
2022-10-13T09:48:50.826Z,16.49
2022-10-13T09:49:51.327Z,16.48
2022-10-13T09:50:51.325Z,16.44
2022-10-13T09:51:51.070Z,16.45
2022-10-13T09:52:51.319Z,16.4
2022-10-13T09:53:51.148Z,16.44
2022-10-13T09:54:50.783Z,16.39
2022-10-13T09:55:51.036Z,16.39
2022-10-13T09:56:51.403Z,16.4
2022-10-13T09:57:51.020Z,16.42
2022-10-13T09:58:51.047Z,16.36
2022-10-13T09:59:51.084Z,16.37
2022-10-13T10:00:51.006Z,16.4
2022-10-13T10:01:51.255Z,16.62
2022-10-13T10:02:50.985Z,16.67
2022-10-13T10:03:50.902Z,16.74
2022-10-13T10:04:50.980Z,16.7
2022-10-13T10:05:50.980Z,16.82
2022-10-13T10:06:50.956Z,16.87
2022-10-13T10:07:51.207Z,16.9
2022-10-13T10:09:07.643Z,16.76
2022-10-13T10:09:50.944Z,16.81
2022-10-13T10:10:51.192Z,16.87
2022-10-13T10:11:50.928Z,16.73
2022-10-13T10:12:51.259Z,16.81
2022-10-13T10:13:50.915Z,16.7
2022-10-13T10:14:50.905Z,16.65
2022-10-13T10:15:51.222Z,16.49
2022-10-13T10:16:50.892Z,16.39
2022-10-13T10:17:50.643Z,16.29
2022-10-13T10:18:53.891Z,16.32
2022-10-13T10:19:50.629Z,16.34
2022-10-13T10:20:50.875Z,16.26
2022-10-13T10:21:50.608Z,16.34
2022-10-13T10:22:50.600Z,16.3
2022-10-13T10:23:51.113Z,16.4
2022-10-13T10:24:51.101Z,16.42
2022-10-13T10:25:51.098Z,16.34
2022-10-13T10:26:51.088Z,16.36
2022-10-13T10:27:50.827Z,16.3
2022-10-13T10:28:51.473Z,16.42
2022-10-13T10:29:51.067Z,16.54
2022-10-13T10:30:50.810Z,16.62
2022-10-13T10:31:50.804Z,16.66
2022-10-13T10:32:50.618Z,16.69
2022-10-13T10:33:50.867Z,16.74
2022-10-13T10:34:51.111Z,16.7
2022-10-13T10:35:51.259Z,16.74
2022-10-13T10:36:50.587Z,16.67
2022-10-13T10:37:50.579Z,16.74
2022-10-13T10:38:51.092Z,16.69
2022-10-13T10:39:50.566Z,16.67
2022-10-13T10:40:51.070Z,16.57
2022-10-13T10:41:50.817Z,16.57
2022-10-13T10:42:56.643Z,16.54
2022-10-13T10:43:50.796Z,16.51
2022-10-13T10:44:51.172Z,16.48
2022-10-13T10:45:50.782Z,16.42
2022-10-13T10:46:50.522Z,16.34
2022-10-13T10:47:50.781Z,16.32
2022-10-13T10:48:51.019Z,16.3
2022-10-13T10:49:50.754Z,16.18
2022-10-13T10:50:50.760Z,16.14
2022-10-13T10:51:51.013Z,15.96
2022-10-13T10:52:51.007Z,15.83
2022-10-13T10:53:50.980Z,15.71
2022-10-13T10:54:53.931Z,15.75
2022-10-13T10:55:51.164Z,15.65
2022-10-13T10:56:50.894Z,15.55
2022-10-13T10:57:51.390Z,15.45
2022-10-13T10:58:50.878Z,15.34
2022-10-13T10:59:54.498Z,15.34
2022-10-13T11:00:51.130Z,15.26
2022-10-13T11:01:51.339Z,15.23
2022-10-13T11:02:51.102Z,15.16
2022-10-13T11:03:51.108Z,15.15
2022-10-13T11:04:51.349Z,15.08
2022-10-13T11:05:51.362Z,15.13
2022-10-13T11:06:51.088Z,15.26
2022-10-13T11:07:51.376Z,15.25
2022-10-13T11:08:51.324Z,15.33
2022-10-13T11:09:51.314Z,15.37
2022-10-13T11:10:51.341Z,15.35
2022-10-13T11:11:51.045Z,15.3
2022-10-13T11:12:51.038Z,15.27
2022-10-13T11:13:51.024Z,15.22
2022-10-13T11:14:51.023Z,15.13
2022-10-13T11:15:51.338Z,15.04
2022-10-13T11:16:51.264Z,14.97
2022-10-13T11:17:50.738Z,14.87
2022-10-13T11:18:51.245Z,14.66
2022-10-13T11:19:50.731Z,14.69
2022-10-13T11:20:50.713Z,14.69
2022-10-13T11:21:50.706Z,14.59
2022-10-13T11:22:50.994Z,14.6
2022-10-13T11:23:51.210Z,14.64
2022-10-13T11:24:50.692Z,14.51
2022-10-13T11:25:51.191Z,14.48
2022-10-13T11:26:50.692Z,14.51
2022-10-13T11:27:50.666Z,14.51
2022-10-13T11:28:51.508Z,14.51
2022-10-13T11:29:50.646Z,14.44
2022-10-13T11:30:51.142Z,14.36
2022-10-13T11:31:51.224Z,14.39
2022-10-13T11:32:50.907Z,14.28
2022-10-13T11:33:50.873Z,14.38
2022-10-13T11:34:51.115Z,14.44
2022-10-13T11:35:50.870Z,14.49
2022-10-13T11:36:50.870Z,14.45
2022-10-13T11:38:12.711Z,14.46
2022-10-13T11:38:51.079Z,14.52
2022-10-13T11:39:50.821Z,14.66
2022-10-13T11:40:50.813Z,14.66
2022-10-13T11:41:51.056Z,14.64
2022-10-13T11:42:52.325Z,14.83
2022-10-13T11:43:51.037Z,14.87
2022-10-13T11:44:50.805Z,15
2022-10-13T11:45:50.774Z,15
2022-10-13T11:46:50.756Z,15
2022-10-13T11:47:51.365Z,15.04
2022-10-13T11:48:50.746Z,15.05
2022-10-13T11:49:50.996Z,15.02
2022-10-13T11:50:50.992Z,15.04
2022-10-13T11:51:50.722Z,15.05
2022-10-13T11:52:51.087Z,15.07
2022-10-13T11:53:50.451Z,15.23
2022-10-13T11:54:50.971Z,15.37
2022-10-13T11:55:50.691Z,15.44
2022-10-13T11:56:53.596Z,15.62
2022-10-13T11:57:50.931Z,15.7
2022-10-13T11:58:50.917Z,15.75
2022-10-13T11:59:50.670Z,15.73
2022-10-13T12:00:50.389Z,15.68
2022-10-13T12:01:50.386Z,15.56
2022-10-13T12:02:50.925Z,15.45
2022-10-13T12:03:50.961Z,15.41
2022-10-13T12:04:51.438Z,15.33
2022-10-13T12:05:50.353Z,15.31
2022-10-13T12:06:50.615Z,15.22
2022-10-13T12:07:50.857Z,15.2
2022-10-13T12:08:50.340Z,15.19
2022-10-13T12:09:50.585Z,15.15
2022-10-13T12:10:50.579Z,15.08
2022-10-13T12:11:50.843Z,15.15
2022-10-13T12:12:50.929Z,15.05
2022-10-13T12:13:50.291Z,15.01
2022-10-13T12:14:50.282Z,15.05
2022-10-13T12:15:50.529Z,15.05
2022-10-13T12:16:50.648Z,15.19
2022-10-13T12:17:50.796Z,15.01
2022-10-13T12:18:50.757Z,15.04
2022-10-13T12:19:50.859Z,15.01
2022-10-13T12:20:50.498Z,15.13
2022-10-13T12:21:50.741Z,15
2022-10-13T12:22:50.617Z,15.02
2022-10-13T12:23:50.463Z,15.05
2022-10-13T12:24:50.466Z,15.05
2022-10-13T12:25:50.862Z,15.18
2022-10-13T12:26:50.441Z,15.13
2022-10-13T12:27:50.429Z,15.15
2022-10-13T12:28:50.945Z,15.26
2022-10-13T12:29:50.424Z,15.25
2022-10-13T12:30:50.419Z,15.34
2022-10-13T12:31:50.405Z,15.37
2022-10-13T12:32:50.408Z,15.43
2022-10-13T12:33:50.651Z,15.63
2022-10-13T12:34:50.127Z,15.58
2022-10-13T12:35:50.700Z,15.77
2022-10-13T12:36:50.486Z,15.84
2022-10-13T12:37:50.366Z,15.88
2022-10-13T12:38:50.613Z,15.88
2022-10-13T12:39:50.598Z,15.83
2022-10-13T12:40:50.078Z,15.81
2022-10-13T12:41:50.069Z,15.77
2022-10-13T12:42:50.069Z,15.68
2022-10-13T12:43:50.727Z,15.65
2022-10-13T12:44:50.966Z,15.56
2022-10-13T12:45:51.224Z,15.45
2022-10-13T12:46:51.238Z,15.38
2022-10-13T12:47:50.953Z,15.25
2022-10-13T12:48:50.951Z,15.08
2022-10-13T12:49:50.683Z,15.05
2022-10-13T12:50:50.926Z,15.01
2022-10-13T12:51:51.295Z,14.9
2022-10-13T12:52:50.988Z,14.71
2022-10-13T12:53:50.908Z,14.64
2022-10-13T12:54:51.160Z,14.71
2022-10-13T12:55:50.632Z,14.49
2022-10-13T12:56:56.539Z,14.48
2022-10-13T12:57:50.875Z,14.51
2022-10-13T12:58:50.610Z,14.48
2022-10-13T12:59:51.109Z,14.34
2022-10-13T13:00:51.015Z,14.27
2022-10-13T13:01:51.097Z,14.3
2022-10-13T13:02:50.871Z,14.23
2022-10-13T13:03:50.816Z,14.2
2022-10-13T13:04:50.830Z,14.13
2022-10-13T13:06:02.918Z,14.15
2022-10-13T13:06:51.308Z,14.15
2022-10-13T13:07:51.865Z,14.15
2022-10-13T13:08:51.269Z,14.13
2022-10-13T13:09:51.791Z,14.05
2022-10-13T13:10:51.518Z,14.11
2022-10-13T13:11:51.499Z,14.09
2022-10-13T13:12:51.760Z,14.08
2022-10-13T13:13:51.483Z,14.11
2022-10-13T13:14:51.501Z,14.09
2022-10-13T13:15:51.465Z,14.09
2022-10-13T13:16:51.459Z,14.16
2022-10-13T13:18:07.099Z,14.24
2022-10-13T13:18:51.453Z,14.33
2022-10-13T13:19:51.442Z,14.27
2022-10-13T13:20:51.677Z,14.36
2022-10-13T13:22:51.588Z,14.33
2022-10-13T13:23:59.426Z,14.38
2022-10-13T13:24:51.668Z,14.44
2022-10-13T13:25:51.384Z,14.36
2022-10-13T13:26:51.379Z,14.46